Time;durP1;ratioP1;P1;durP2;ratioP2;P2;SDS_P1;SDS_P2;PMS_P1;PMS_P2;Temp;Humidity;BMP_temperature;BMP_pressure;BME280_temperature;BME280_humidity;BME280_pressure;Samples;Min_cycle;Max_cycle;Signal;HPM_P1;HPM_P2
2022/10/11 00:01:49;;;;;;;6.90;0.85;;;7.30;99.90;;;;;;4977130;28;21342;-38
2022/10/11 00:04:14;;;;;;;8.40;0.80;;;7.20;99.90;;;;;;4992651;28;20054;-37
2022/10/11 00:06:42;;;;;;;7.35;0.88;;;7.20;99.90;;;;;;4999007;28;20054;-37
2022/10/11 00:09:10;;;;;;;6.10;0.98;;;7.20;99.90;;;;;;4985636;28;20045;-37
2022/10/11 00:11:36;;;;;;;8.60;1.40;;;7.20;99.90;;;;;;4990889;28;20058;-38
2022/10/11 00:14:03;;;;;;;4.38;1.27;;;7.10;99.90;;;;;;4986055;28;20046;-37
2022/10/11 00:16:28;;;;;;;12.73;1.80;;;7.10;99.90;;;;;;4991656;28;20042;-38
2022/10/11 00:18:54;;;;;;;6.53;1.15;;;7.20;99.90;;;;;;4994269;28;20503;-37
2022/10/11 00:21:20;;;;;;;7.22;0.85;;;7.20;99.90;;;;;;4991577;28;20034;-37
2022/10/11 00:23:47;;;;;;;7.38;1.00;;;7.20;99.90;;;;;;4991902;28;20042;-37
2022/10/11 00:26:13;;;;;;;2.67;1.05;;;7.20;99.90;;;;;;4988086;28;20499;-38
2022/10/11 00:28:39;;;;;;;4.30;0.85;;;7.20;99.90;;;;;;4985381;28;20042;-37
2022/10/11 00:31:10;;;;;;;6.15;1.35;;;7.20;99.90;;;;;;4983927;28;20046;-37
2022/10/11 00:33:36;;;;;;;3.60;0.93;;;7.20;99.90;;;;;;4985404;28;20725;-38
2022/10/11 00:36:03;;;;;;;5.93;0.95;;;7.10;99.90;;;;;;4990471;28;20046;-37
2022/10/11 00:38:29;;;;;;;3.25;0.90;;;7.10;99.90;;;;;;4993991;28;20046;-37
2022/10/11 00:40:54;;;;;;;11.70;2.10;;;7.10;99.90;;;;;;4984345;28;20046;-37
2022/10/11 00:43:24;;;;;;;4.32;0.77;;;7.00;99.90;;;;;;4991743;28;20128;-37
2022/10/11 00:45:56;;;;;;;6.93;0.93;;;7.00;99.90;;;;;;4988339;28;20045;-38
2022/10/11 00:48:27;;;;;;;5.90;1.05;;;7.00;99.90;;;;;;4999373;28;20037;-37
2022/10/11 00:50:59;;;;;;;9.10;1.02;;;7.00;99.90;;;;;;4997701;28;20046;-37
2022/10/11 00:53:29;;;;;;;5.93;1.17;;;7.00;99.90;;;;;;4988774;28;20113;-37
2022/10/11 00:56:03;;;;;;;2.50;0.80;;;6.90;99.90;;;;;;4989150;28;20046;-38
2022/10/11 00:58:31;;;;;;;2.00;0.80;;;6.90;99.90;;;;;;4991351;28;20049;-37
2022/10/11 01:00:57;;;;;;;5.65;1.00;;;6.90;99.90;;;;;;4988891;28;20550;-38
2022/10/11 01:03:25;;;;;;;5.63;0.80;;;6.90;99.90;;;;;;4987953;28;20233;-36
2022/10/11 01:05:51;;;;;;;2.97;0.80;;;6.90;99.90;;;;;;4984140;28;20080;-37
2022/10/11 01:08:17;;;;;;;3.30;0.80;;;6.90;99.90;;;;;;4991836;28;20034;-37
2022/10/11 01:10:43;;;;;;;5.40;1.00;;;6.90;99.90;;;;;;4985367;28;20046;-37
2022/10/11 01:13:28;;;;;;;5.32;0.80;;;6.90;99.90;;;;;;4990591;28;20129;-37
2022/10/11 01:16:08;;;;;;;4.65;0.77;;;6.80;99.90;;;;;;4986638;28;20038;-37
2022/10/11 01:18:51;;;;;;;3.45;0.60;;;6.80;99.90;;;;;;4990572;28;20050;-38
2022/10/11 01:21:27;;;;;;;5.70;1.08;;;6.80;99.90;;;;;;4991430;28;20121;-37
2022/10/11 01:24:35;;;;;;;2.15;0.60;;;6.70;99.90;;;;;;4996390;28;20052;-37
2022/10/11 01:27:25;;;;;;;3.00;0.73;;;6.70;99.90;;;;;;4983033;28;20419;-37
2022/10/11 01:30:19;;;;;;;5.13;0.88;;;6.70;99.90;;;;;;4990631;28;20042;-37
2022/10/11 01:33:05;;;;;;;10.05;0.90;;;6.70;99.90;;;;;;4986805;28;20043;-37
2022/10/11 01:36:14;;;;;;;7.97;1.08;;;6.70;99.90;;;;;;4983320;28;20185;-37
2022/10/11 01:39:05;;;;;;;1.95;0.47;;;6.60;99.90;;;;;;4976786;28;20061;-38
2022/10/11 01:41:38;;;;;;;5.57;0.85;;;6.60;99.90;;;;;;4973793;28;20049;-37
2022/10/11 01:44:05;;;;;;;2.90;0.77;;;6.60;99.90;;;;;;4988713;28;20050;-38
2022/10/11 01:46:32;;;;;;;3.92;0.82;;;6.60;99.90;;;;;;4987636;28;20042;-37
2022/10/11 01:48:59;;;;;;;8.20;0.60;;;6.60;99.90;;;;;;4992103;28;20053;-37
2022/10/11 01:51:33;;;;;;;4.90;0.80;;;6.60;99.90;;;;;;4988366;28;20042;-37
2022/10/11 01:54:25;;;;;;;4.03;1.08;;;6.60;99.90;;;;;;4995387;28;20493;-37
2022/10/11 01:57:14;;;;;;;5.28;0.75;;;6.60;99.90;;;;;;4984635;28;20038;-37
2022/10/11 02:00:03;;;;;;;5.53;0.98;;;6.50;99.90;;;;;;4985693;28;20052;-38
2022/10/11 02:03:06;;;;;;;2.92;1.00;;;6.50;99.90;;;;;;4988334;28;20503;-37
2022/10/11 02:05:43;;;;;;;6.15;0.80;;;6.50;99.90;;;;;;4979957;28;20533;-36
2022/10/11 02:08:25;;;;;;;3.35;0.70;;;6.50;99.90;;;;;;4984825;28;20565;-37
2022/10/11 02:11:05;;;;;;;8.88;0.85;;;6.50;99.90;;;;;;4983653;28;20136;-37
2022/10/11 02:13:52;;;;;;;2.00;0.70;;;6.50;99.90;;;;;;4987250;28;20407;-37
2022/10/11 02:16:22;;;;;;;3.65;0.80;;;6.50;99.90;;;;;;4989618;28;20034;-36
2022/10/11 02:18:52;;;;;;;3.55;0.60;;;6.50;99.90;;;;;;4992054;28;20158;-36
2022/10/11 02:21:20;;;;;;;3.67;0.60;;;6.50;99.90;;;;;;4988549;28;20046;-37
2022/10/11 02:24:14;;;;;;;4.65;0.70;;;6.50;99.90;;;;;;4986004;28;20038;-37
2022/10/11 02:26:45;;;;;;;5.65;0.98;;;6.50;99.90;;;;;;4969074;28;20505;-38
2022/10/11 02:29:13;;;;;;;4.80;0.70;;;6.50;99.90;;;;;;4983062;28;20061;-37
2022/10/11 02:31:42;;;;;;;3.33;0.77;;;6.50;99.90;;;;;;4986487;28;20046;-38
2022/10/11 02:34:16;;;;;;;8.27;1.17;;;6.50;99.90;;;;;;4985667;28;20096;-36
2022/10/11 02:36:50;;;;;;;6.78;0.65;;;6.40;99.90;;;;;;4989316;28;20034;-37
2022/10/11 02:39:24;;;;;;;3.97;0.70;;;6.40;99.90;;;;;;4987559;28;20042;-37
2022/10/11 02:41:54;;;;;;;4.60;0.80;;;6.40;99.90;;;;;;4984863;28;20414;-38
2022/10/11 02:44:30;;;;;;;5.15;0.70;;;6.40;99.90;;;;;;4979822;28;20140;-47
2022/10/11 02:46:58;;;;;;;5.47;0.90;;;6.40;99.90;;;;;;4987074;28;20507;-37
2022/10/11 02:49:26;;;;;;;3.60;0.85;;;6.30;99.90;;;;;;4981620;28;20072;-37
2022/10/11 02:51:54;;;;;;;5.07;0.80;;;6.30;99.90;;;;;;4989872;28;20069;-37
2022/10/11 02:54:20;;;;;;;9.05;1.63;;;6.30;99.90;;;;;;4985140;28;20042;-37
2022/10/11 02:56:45;;;;;;;3.45;0.60;;;6.30;99.90;;;;;;4982865;28;20065;-36
2022/10/11 02:59:11;;;;;;;4.63;0.80;;;6.30;99.90;;;;;;4985274;28;20064;-36
2022/10/11 03:01:37;;;;;;;1.45;0.30;;;6.20;99.90;;;;;;4984671;28;20052;-38
2022/10/11 03:04:02;;;;;;;4.95;0.70;;;6.30;99.90;;;;;;4987969;28;20038;-39
2022/10/11 03:06:28;;;;;;;4.13;0.65;;;6.20;99.90;;;;;;4977439;28;20049;-38
2022/10/11 03:08:54;;;;;;;4.15;0.68;;;6.20;99.90;;;;;;4985280;28;20089;-37
2022/10/11 03:11:19;;;;;;;7.57;1.17;;;6.20;99.90;;;;;;4967263;28;20066;-37
2022/10/11 03:13:45;;;;;;;3.47;0.55;;;6.20;99.90;;;;;;4982733;28;20129;-37
2022/10/11 03:16:11;;;;;;;5.47;0.98;;;6.10;99.90;;;;;;4985692;28;20026;-38
2022/10/11 03:18:36;;;;;;;6.32;0.75;;;6.20;99.90;;;;;;4991294;28;20039;-38
2022/10/11 03:21:02;;;;;;;2.25;0.40;;;6.10;99.90;;;;;;4985482;28;20105;-37
2022/10/11 03:23:28;;;;;;;5.88;1.17;;;6.10;99.90;;;;;;4983140;28;20110;-37
2022/10/11 03:25:54;;;;;;;1.83;0.65;;;6.10;99.90;;;;;;4982442;28;20085;-37
2022/10/11 03:28:20;;;;;;;3.42;0.73;;;6.10;99.90;;;;;;4988944;28;20110;-37
2022/10/11 03:30:47;;;;;;;7.38;1.08;;;6.10;99.90;;;;;;4993166;28;20054;-37
2022/10/11 03:33:13;;;;;;;6.90;0.60;;;6.10;99.90;;;;;;4997145;28;20049;-37
2022/10/11 03:35:39;;;;;;;5.07;0.60;;;6.10;99.90;;;;;;4984603;28;20053;-37
2022/10/11 03:38:05;;;;;;;4.78;0.95;;;6.10;99.90;;;;;;4985172;28;20046;-37
2022/10/11 03:40:31;;;;;;;8.43;0.93;;;6.10;99.90;;;;;;4997434;28;20041;-36
2022/10/11 03:42:57;;;;;;;6.53;1.23;;;6.10;99.90;;;;;;4992085;28;20137;-37
2022/10/11 03:45:23;;;;;;;2.60;0.60;;;6.10;99.90;;;;;;4987759;28;20054;-37
2022/10/11 03:47:49;;;;;;;3.67;0.73;;;6.10;99.90;;;;;;4990249;28;20042;-38
2022/10/11 03:50:14;;;;;;;4.05;0.70;;;6.10;99.90;;;;;;4984352;28;20142;-37
2022/10/11 03:52:40;;;;;;;6.40;0.88;;;6.10;99.90;;;;;;4989945;28;20034;-38
2022/10/11 03:55:06;;;;;;;3.53;0.90;;;6.10;99.90;;;;;;4990998;28;20121;-37
2022/10/11 03:57:32;;;;;;;3.15;0.82;;;6.10;99.90;;;;;;4994787;28;20034;-36
2022/10/11 03:59:57;;;;;;;3.92;0.90;;;6.10;99.90;;;;;;4987485;28;20050;-37
2022/10/11 04:02:23;;;;;;;3.35;0.75;;;6.10;99.90;;;;;;4989655;28;20582;-37
2022/10/11 04:04:49;;;;;;;2.47;0.60;;;6.10;99.90;;;;;;4985085;28;20558;-37
2022/10/11 04:07:14;;;;;;;3.42;0.70;;;6.10;99.90;;;;;;4990809;28;20034;-36
2022/10/11 04:09:40;;;;;;;3.45;0.90;;;6.10;99.90;;;;;;4987690;28;20049;-37
2022/10/11 04:12:06;;;;;;;2.83;0.80;;;6.10;99.90;;;;;;4989793;28;20042;-36
2022/10/11 04:14:32;;;;;;;4.72;0.80;;;6.00;99.90;;;;;;4985223;28;20175;-37
2022/10/11 04:16:57;;;;;;;3.72;0.93;;;6.00;99.90;;;;;;4972917;28;20117;-37
2022/10/11 04:19:23;;;;;;;2.92;0.80;;;6.00;99.90;;;;;;4989639;28;20152;-37
2022/10/11 04:21:49;;;;;;;2.67;0.80;;;6.00;99.90;;;;;;4995996;28;20053;-37
2022/10/11 04:24:14;;;;;;;5.93;1.00;;;6.00;99.90;;;;;;4992618;28;20045;-37
2022/10/11 04:26:40;;;;;;;6.97;0.95;;;6.00;99.90;;;;;;4990248;28;20116;-37
2022/10/11 04:29:05;;;;;;;3.67;0.70;;;6.00;99.90;;;;;;4988622;28;20049;-37
2022/10/11 04:31:31;;;;;;;4.13;1.02;;;6.00;99.90;;;;;;4989881;28;20034;-38
2022/10/11 04:33:57;;;;;;;6.75;0.80;;;5.90;99.90;;;;;;4991494;28;20455;-37
2022/10/11 04:36:23;;;;;;;4.88;0.85;;;5.90;99.90;;;;;;4985188;28;20399;-38
2022/10/11 04:38:48;;;;;;;6.30;1.05;;;5.90;99.90;;;;;;4991327;28;20466;-39
2022/10/11 04:41:15;;;;;;;7.28;1.33;;;5.90;99.90;;;;;;4988268;28;20050;-39
2022/10/11 04:43:41;;;;;;;8.35;1.17;;;5.90;99.90;;;;;;4987792;28;20054;-37
2022/10/11 04:46:07;;;;;;;4.75;0.70;;;5.90;99.90;;;;;;4989753;28;20565;-38
2022/10/11 04:48:33;;;;;;;3.90;0.90;;;5.90;99.90;;;;;;4991139;28;20043;-38
2022/10/11 04:50:59;;;;;;;9.38;1.10;;;5.90;99.90;;;;;;4983276;28;20069;-36
2022/10/11 04:53:24;;;;;;;5.80;1.10;;;5.80;99.90;;;;;;4991961;28;20030;-38
2022/10/11 04:56:00;;;;;;;7.60;1.77;;;5.90;99.90;;;;;;4984259;28;20042;-37
2022/10/11 04:58:28;;;;;;;2.95;0.75;;;5.90;99.90;;;;;;4993483;28;20074;-37
2022/10/11 05:00:54;;;;;;;8.07;1.30;;;5.90;99.90;;;;;;4985025;28;20629;-37
2022/10/11 05:03:19;;;;;;;4.78;1.10;;;5.90;99.90;;;;;;4987682;28;20093;-37
2022/10/11 05:05:45;;;;;;;6.53;1.10;;;5.90;99.90;;;;;;4983546;28;20034;-37
2022/10/11 05:08:11;;;;;;;6.38;1.10;;;5.90;99.90;;;;;;4988820;28;20046;-39
2022/10/11 05:10:36;;;;;;;6.80;1.27;;;5.90;99.90;;;;;;4982194;28;20042;-41
2022/10/11 05:13:02;;;;;;;4.47;1.70;;;5.90;99.90;;;;;;4988460;28;20042;-37
2022/10/11 05:15:28;;;;;;;3.80;1.02;;;5.90;99.90;;;;;;4987435;28;20380;-38
2022/10/11 05:17:53;;;;;;;3.88;1.02;;;5.90;99.90;;;;;;4989253;28;20415;-37
2022/10/11 05:20:19;;;;;;;4.50;1.13;;;5.80;99.90;;;;;;4984573;28;20038;-37
2022/10/11 05:22:45;;;;;;;6.25;1.15;;;5.80;99.90;;;;;;4986396;28;20463;-37
2022/10/11 05:25:11;;;;;;;9.43;1.30;;;5.80;99.90;;;;;;4978745;28;20045;-37
2022/10/11 05:27:37;;;;;;;6.90;1.90;;;5.90;99.90;;;;;;4975663;28;20125;-36
2022/10/11 05:30:03;;;;;;;3.20;0.82;;;5.80;99.90;;;;;;4985074;28;20125;-37
2022/10/11 05:32:29;;;;;;;5.50;1.13;;;5.90;99.90;;;;;;4987719;28;20100;-37
2022/10/11 05:34:55;;;;;;;7.53;1.52;;;5.80;99.90;;;;;;4987233;28;20041;-36
2022/10/11 05:37:20;;;;;;;6.80;1.38;;;5.90;99.90;;;;;;4983742;28;20035;-36
2022/10/11 05:39:46;;;;;;;4.28;1.63;;;5.80;99.90;;;;;;4993187;28;20052;-37
2022/10/11 05:42:12;;;;;;;7.35;1.38;;;5.80;99.90;;;;;;4985313;28;20137;-38
2022/10/11 05:44:37;;;;;;;6.88;1.40;;;5.80;99.90;;;;;;4987717;28;20058;-37
2022/10/11 05:47:03;;;;;;;6.40;1.60;;;5.80;99.90;;;;;;4993550;28;20571;-36
2022/10/11 05:49:29;;;;;;;5.10;1.33;;;5.90;99.90;;;;;;4988623;28;20052;-37
2022/10/11 05:51:54;;;;;;;7.50;1.15;;;5.80;99.90;;;;;;4987177;28;20054;-37
2022/10/11 05:54:21;;;;;;;8.35;1.83;;;5.80;99.90;;;;;;4991706;28;20030;-36
2022/10/11 05:56:47;;;;;;;7.38;1.55;;;5.80;99.90;;;;;;4990942;28;20046;-36
2022/10/11 05:59:13;;;;;;;7.28;1.40;;;5.80;99.90;;;;;;4991707;28;20148;-36
2022/10/11 06:01:38;;;;;;;7.43;2.00;;;5.80;99.90;;;;;;4988921;28;20558;-36
2022/10/11 06:04:04;;;;;;;9.98;2.58;;;5.80;99.90;;;;;;4987725;28;20046;-36
2022/10/11 06:06:30;;;;;;;7.80;2.42;;;5.80;99.90;;;;;;4982623;28;20049;-37
2022/10/11 06:08:56;;;;;;;8.93;2.20;;;5.90;99.90;;;;;;4988407;28;20419;-37
2022/10/11 06:11:25;;;;;;;7.45;1.70;;;5.80;99.90;;;;;;4988538;28;20407;-37
2022/10/11 06:13:56;;;;;;;8.90;1.95;;;5.90;99.90;;;;;;4986219;28;20415;-38
2022/10/11 06:16:23;;;;;;;5.10;1.67;;;5.90;99.90;;;;;;4984489;28;20030;-37
2022/10/11 06:18:58;;;;;;;4.45;1.52;;;5.90;99.90;;;;;;4988838;28;20072;-38
2022/10/11 06:21:24;;;;;;;8.25;1.80;;;5.90;99.90;;;;;;4977153;28;21386;-38
2022/10/11 06:23:51;;;;;;;8.55;2.22;;;5.90;99.90;;;;;;4987005;28;20161;-38
2022/10/11 06:26:17;;;;;;;6.95;1.70;;;6.00;99.90;;;;;;4989503;28;20046;-39
2022/10/11 06:28:42;;;;;;;9.18;1.90;;;6.00;99.90;;;;;;4971461;28;20050;-39
2022/10/11 06:31:09;;;;;;;5.15;1.30;;;6.00;99.90;;;;;;4984409;28;20051;-38
2022/10/11 06:33:36;;;;;;;7.50;1.65;;;6.00;99.90;;;;;;4986262;28;20552;-39
2022/10/11 06:36:10;;;;;;;13.10;2.05;;;6.10;99.90;;;;;;4987189;28;20053;-38
2022/10/11 06:38:36;;;;;;;7.22;2.10;;;6.10;99.90;;;;;;4984808;28;20046;-39
2022/10/11 06:41:14;;;;;;;7.97;1.70;;;6.20;99.90;;;;;;4985606;28;20172;-38
2022/10/11 06:43:40;;;;;;;8.98;2.58;;;6.20;99.90;;;;;;4986577;28;20057;-38
2022/10/11 06:46:07;;;;;;;7.88;2.08;;;6.30;99.90;;;;;;4983320;28;20526;-38
2022/10/11 06:48:33;;;;;;;6.88;2.05;;;6.30;99.90;;;;;;4987494;28;20033;-38
2022/10/11 06:50:59;;;;;;;7.78;2.22;;;6.40;99.90;;;;;;4983966;28;20042;-38
2022/10/11 06:53:25;;;;;;;8.40;3.38;;;6.40;99.90;;;;;;4988372;28;20045;-38
2022/10/11 06:55:51;;;;;;;7.60;1.90;;;6.40;99.90;;;;;;4986024;28;20113;-39
2022/10/11 06:58:17;;;;;;;11.07;2.25;;;6.50;99.90;;;;;;4987112;28;20125;-38
2022/10/11 07:00:42;;;;;;;4.25;1.65;;;6.50;99.90;;;;;;4988171;28;20209;-38
2022/10/11 07:03:08;;;;;;;6.80;1.70;;;6.50;99.90;;;;;;4983999;28;20045;-39
2022/10/11 07:05:34;;;;;;;5.93;1.75;;;6.60;99.90;;;;;;4988251;28;20050;-38
2022/10/11 07:08:00;;;;;;;9.93;2.85;;;6.60;99.90;;;;;;4990473;28;20097;-38
2022/10/11 07:10:26;;;;;;;6.25;1.40;;;6.60;99.90;;;;;;4985539;28;20069;-39
2022/10/11 07:12:52;;;;;;;7.47;1.75;;;6.60;99.90;;;;;;4984641;28;20048;-38
2022/10/11 07:15:18;;;;;;;7.90;1.52;;;6.70;99.90;;;;;;4984475;28;20038;-39
2022/10/11 07:17:43;;;;;;;5.93;1.60;;;6.70;99.90;;;;;;4984043;28;20521;-40
2022/10/11 07:20:10;;;;;;;12.02;2.17;;;6.80;99.90;;;;;;4982770;28;20121;-39
2022/10/11 07:22:36;;;;;;;7.78;1.65;;;6.80;99.90;;;;;;4986202;28;20038;-39
2022/10/11 07:25:01;;;;;;;5.95;1.45;;;6.80;99.90;;;;;;4990190;28;20042;-39
2022/10/11 07:27:27;;;;;;;5.13;1.42;;;6.80;99.90;;;;;;4985854;28;20038;-38
2022/10/11 07:29:52;;;;;;;7.95;1.60;;;6.90;99.90;;;;;;4985148;28;20034;-39
2022/10/11 07:32:18;;;;;;;8.05;1.90;;;6.90;99.90;;;;;;4985985;28;20046;-39
2022/10/11 07:34:44;;;;;;;8.30;1.70;;;6.90;99.90;;;;;;4991943;28;20046;-39
2022/10/11 07:37:10;;;;;;;3.88;1.45;;;6.90;99.90;;;;;;4985592;28;20422;-39
2022/10/11 07:39:35;;;;;;;6.72;1.42;;;7.00;99.90;;;;;;4989468;28;20077;-39
2022/10/11 07:42:01;;;;;;;5.43;1.20;;;7.10;99.90;;;;;;4993012;28;20051;-39
2022/10/11 07:44:27;;;;;;;7.75;1.40;;;7.20;99.90;;;;;;4988067;28;20081;-39
2022/10/11 07:46:52;;;;;;;8.88;2.10;;;7.20;99.90;;;;;;4968264;28;20105;-39
2022/10/11 07:49:18;;;;;;;6.00;1.80;;;7.30;99.90;;;;;;4988886;28;20065;-39
2022/10/11 07:51:44;;;;;;;8.10;1.42;;;7.40;99.90;;;;;;4985428;28;20167;-40
2022/10/11 07:54:09;;;;;;;5.78;1.30;;;7.50;99.90;;;;;;4987674;28;20117;-40
2022/10/11 07:56:36;;;;;;;13.07;2.67;;;7.70;99.90;;;;;;4985219;28;20101;-41
2022/10/11 07:59:02;;;;;;;8.70;2.20;;;7.70;99.90;;;;;;4989739;28;20038;-40
2022/10/11 08:01:29;;;;;;;11.30;2.10;;;7.80;99.90;;;;;;4988009;28;20455;-38
2022/10/11 08:03:58;;;;;;;7.30;1.70;;;7.90;99.90;;;;;;4987441;28;20104;-38
2022/10/11 08:06:30;;;;;;;8.65;2.08;;;8.00;99.90;;;;;;4984188;28;20078;-39
2022/10/11 08:08:57;;;;;;;11.95;2.05;;;8.10;99.90;;;;;;4987530;28;20085;-39
2022/10/11 08:11:24;;;;;;;5.00;1.45;;;8.20;99.90;;;;;;4986000;28;20061;-38
2022/10/11 08:13:50;;;;;;;6.55;1.98;;;8.20;99.90;;;;;;4988965;28;20150;-37
2022/10/11 08:16:16;;;;;;;6.88;1.80;;;8.20;99.90;;;;;;4990205;28;20547;-36
2022/10/11 08:18:42;;;;;;;6.55;1.45;;;8.30;99.90;;;;;;4991279;28;20042;-37
2022/10/11 08:21:10;;;;;;;10.93;2.58;;;8.40;99.90;;;;;;4991259;28;20040;-37
2022/10/11 08:23:36;;;;;;;10.75;2.35;;;;;;;;;;4988521;28;20053;-37
2022/10/11 08:26:02;;;;;;;6.80;1.58;;;8.50;99.90;;;;;;4987785;28;20038;-37
2022/10/11 08:28:28;;;;;;;7.88;1.65;;;8.60;99.90;;;;;;4992248;28;20484;-36
2022/10/11 08:30:55;;;;;;;8.18;1.70;;;8.60;99.90;;;;;;4992555;28;20049;-37
2022/10/11 08:33:22;;;;;;;9.90;2.22;;;8.70;99.90;;;;;;4975715;28;20085;-36
2022/10/11 08:35:49;;;;;;;6.38;1.73;;;8.80;99.90;;;;;;4988253;28;20042;-37
2022/10/11 08:38:15;;;;;;;6.57;2.72;;;8.90;99.90;;;;;;4992141;28;20049;-37
2022/10/11 08:40:50;;;;;;;7.60;2.20;;;9.00;99.90;;;;;;4986010;28;20061;-37
2022/10/11 08:43:38;;;;;;;6.75;1.40;;;9.20;99.90;;;;;;4984849;28;20054;-37
2022/10/11 08:46:06;;;;;;;8.38;1.60;;;9.30;99.90;;;;;;4971089;28;20989;-38
2022/10/11 08:48:40;;;;;;;7.18;1.63;;;9.40;99.90;;;;;;4992094;28;20034;-38
2022/10/11 08:51:19;;;;;;;6.15;1.38;;;9.50;99.90;;;;;;4988710;28;20103;-38
2022/10/11 08:53:55;;;;;;;8.95;1.65;;;9.70;99.90;;;;;;4988580;28;20514;-38
2022/10/11 08:56:21;;;;;;;12.38;1.65;;;9.80;99.90;;;;;;4985471;28;20541;-38
2022/10/11 08:59:11;;;;;;;11.60;1.40;;;10.00;99.90;;;;;;4988600;28;20085;-38
2022/10/11 09:01:46;;;;;;;7.10;1.38;;;10.10;99.90;;;;;;4989103;28;20042;-38
2022/10/11 09:04:16;;;;;;;6.05;1.00;;;10.30;99.90;;;;;;4987834;28;20046;-38
2022/10/11 09:07:01;;;;;;;5.60;1.35;;;10.40;99.90;;;;;;4984887;28;20104;-38
2022/10/11 09:09:46;;;;;;;15.77;2.13;;;10.50;99.90;;;;;;4985746;28;20129;-38
2022/10/11 09:12:37;;;;;;;8.82;1.92;;;10.70;99.90;;;;;;4973578;28;20129;-38
2022/10/11 09:15:26;;;;;;;11.50;1.85;;;10.90;99.90;;;;;;4987932;28;20041;-38
2022/10/11 09:18:20;;;;;;;7.15;1.35;;;11.00;99.90;;;;;;4987726;28;20038;-39
2022/10/11 09:20:54;;;;;;;7.63;1.30;;;11.20;99.90;;;;;;4971124;28;20149;-38
2022/10/11 09:23:45;;;;;;;5.70;1.23;;;11.20;99.90;;;;;;4987724;28;20042;-38
2022/10/11 09:26:19;;;;;;;8.30;1.08;;;11.40;99.90;;;;;;4988005;28;20087;-38
2022/10/11 09:29:04;;;;;;;5.90;1.20;;;11.40;99.90;;;;;;4990643;28;20026;-38
2022/10/11 09:31:31;;;;;;;6.47;1.45;;;11.40;99.90;;;;;;4987664;28;20050;-38
2022/10/11 09:33:59;;;;;;;10.65;1.55;;;11.40;99.90;;;;;;4989188;28;20038;-38
2022/10/11 09:36:58;;;;;;;7.32;1.23;;;11.50;99.90;;;;;;4969770;28;20043;-38
2022/10/11 09:39:33;;;;;;;8.88;1.38;;;11.60;99.90;;;;;;4990843;28;20052;-37
2022/10/11 09:42:04;;;;;;;7.40;1.60;;;11.60;99.90;;;;;;4979064;28;20129;-37
2022/10/11 09:44:37;;;;;;;8.80;1.45;;;11.70;99.90;;;;;;4981434;28;20054;-36
2022/10/11 09:47:05;;;;;;;8.75;1.02;;;11.80;99.90;;;;;;4987902;28;20058;-37
2022/10/11 09:49:36;;;;;;;13.30;1.60;;;11.90;99.90;;;;;;4990374;28;20084;-37
2022/10/11 09:52:04;;;;;;;6.78;1.20;;;12.00;99.90;;;;;;4999747;28;20049;-37
2022/10/11 09:54:59;;;;;;;8.00;1.30;;;12.10;99.90;;;;;;4989819;28;20041;-36
2022/10/11 09:57:30;;;;;;;9.80;1.08;;;12.20;99.90;;;;;;4985812;28;20078;-37
2022/10/11 09:59:59;;;;;;;6.22;0.95;;;12.20;99.90;;;;;;4991694;28;20137;-39
2022/10/11 10:02:25;;;;;;;10.13;1.33;;;12.30;99.90;;;;;;4991859;28;20042;-39
2022/10/11 10:04:59;;;;;;;10.18;1.80;;;12.50;99.90;;;;;;4993693;28;20569;-39
2022/10/11 10:07:26;;;;;;;9.57;1.13;;;12.60;99.90;;;;;;4992499;28;20046;-40
2022/10/11 10:09:52;;;;;;;6.30;1.40;;;12.70;99.90;;;;;;4993189;28;20034;-39
2022/10/11 10:12:28;;;;;;;7.78;1.33;;;12.90;99.90;;;;;;4988018;28;20046;-39
2022/10/11 10:15:12;;;;;;;6.65;0.73;;;13.00;99.90;;;;;;4991286;28;20038;-40
2022/10/11 10:17:46;;;;;;;6.60;1.10;;;13.10;99.90;;;;;;4987463;28;20038;-41
2022/10/11 10:20:20;;;;;;;10.00;1.30;;;13.20;99.90;;;;;;4997789;28;20060;-39
2022/10/11 10:22:46;;;;;;;7.85;1.38;;;13.20;99.90;;;;;;4997885;28;20521;-42
2022/10/11 10:25:33;;;;;;;6.22;1.02;;;13.10;99.90;;;;;;5000341;28;20052;-40
2022/10/11 10:28:15;;;;;;;10.50;1.27;;;13.10;99.90;;;;;;4990960;28;20057;-40
2022/10/11 10:30:54;;;;;;;7.85;0.98;;;13.20;99.90;;;;;;4996867;28;20062;-40
2022/10/11 10:33:24;;;;;;;7.72;1.00;;;13.30;98.50;;;;;;4990841;28;20615;-38
2022/10/11 10:35:59;;;;;;;6.05;0.77;;;13.40;98.90;;;;;;4995888;28;20041;-40
2022/10/11 10:38:42;;;;;;;7.00;0.80;;;13.60;98.80;;;;;;4990206;28;20050;-40
2022/10/11 10:41:11;;;;;;;9.10;0.82;;;13.70;97.30;;;;;;4991490;28;20042;-38
2022/10/11 10:43:39;;;;;;;2.58;0.47;;;13.80;98.00;;;;;;4996986;28;20515;-39
2022/10/11 10:46:20;;;;;;;9.60;0.98;;;13.90;97.60;;;;;;4993253;28;20038;-40
2022/10/11 10:49:14;;;;;;;6.70;0.82;;;14.00;96.10;;;;;;4996278;28;20049;-42
2022/10/11 10:52:30;;;;;;;6.35;1.25;;;14.10;96.50;;;;;;4970208;28;20605;-46
2022/10/11 10:55:05;;;;;;;6.55;0.95;;;14.20;95.20;;;;;;4987282;28;20047;-41
2022/10/11 10:58:02;;;;;;;10.35;1.13;;;14.20;95.60;;;;;;4994813;28;20491;-38
2022/10/11 11:00:40;;;;;;;6.25;1.13;;;14.30;93.20;;;;;;4989891;28;20038;-39
2022/10/11 11:03:30;;;;;;;8.95;1.05;;;14.40;94.00;;;;;;4981686;28;20046;-38
2022/10/11 11:06:08;;;;;;;4.90;1.00;;;14.40;94.50;;;;;;4987818;28;20045;-38
2022/10/11 11:08:51;;;;;;;6.53;0.90;;;14.50;93.40;;;;;;4984057;28;20410;-38
2022/10/11 11:11:35;;;;;;;6.85;1.10;;;14.50;93.20;;;;;;4985789;28;20137;-39
2022/10/11 11:14:13;;;;;;;8.65;0.88;;;14.60;93.80;;;;;;4987483;28;20040;-38
2022/10/11 11:16:59;;;;;;;6.90;0.88;;;14.80;92.70;;;;;;4984093;28;20045;-38
2022/10/11 11:19:44;;;;;;;7.93;0.90;;;14.80;92.60;;;;;;4988319;28;20041;-39
2022/10/11 11:22:17;;;;;;;7.13;1.20;;;14.90;94.20;;;;;;4987880;28;20038;-38
2022/10/11 11:24:46;;;;;;;8.57;0.80;;;15.00;92.90;;;;;;4986212;28;20034;-39
2022/10/11 11:27:42;;;;;;;9.32;1.25;;;15.10;93.00;;;;;;4989143;28;20069;-38
2022/10/11 11:30:15;;;;;;;6.78;1.05;;;15.20;91.00;;;;;;4985235;28;20057;-38
2022/10/11 11:33:07;;;;;;;7.13;0.93;;;15.30;92.10;;;;;;4985451;28;20039;-41
2022/10/11 11:35:40;;;;;;;5.65;1.02;;;15.30;91.20;;;;;;4964492;28;20514;-40
2022/10/11 11:38:29;;;;;;;7.35;0.75;;;15.40;91.70;;;;;;4969458;28;20035;-41
2022/10/11 11:41:04;;;;;;;8.55;1.20;;;15.50;89.90;;;;;;4984454;28;20038;-40
2022/10/11 11:43:37;;;;;;;4.60;0.70;;;15.70;91.30;;;;;;4986192;28;20522;-39
2022/10/11 11:46:18;;;;;;;6.88;0.90;;;15.90;90.40;;;;;;4987368;28;20050;-38
2022/10/11 11:48:44;;;;;;;13.10;1.20;;;16.40;88.40;;;;;;4986227;28;20049;-39
2022/10/11 11:51:26;;;;;;;7.90;1.30;;;16.80;86.40;;;;;;4988866;28;20389;-40
2022/10/11 11:54:01;;;;;;;6.38;0.80;;;17.10;80.40;;;;;;4989447;28;20034;-40
2022/10/11 11:56:58;;;;;;;5.70;0.88;;;17.50;81.70;;;;;;4991860;28;20075;-40
2022/10/11 11:59:42;;;;;;;8.88;1.20;;;17.80;72.90;;;;;;4990662;28;20507;-40
2022/10/11 12:02:20;;;;;;;7.70;0.98;;;17.70;78.00;;;;;;4990485;28;20559;-39
2022/10/11 12:04:48;;;;;;;7.60;1.42;;;17.50;76.80;;;;;;4988163;28;20038;-40
2022/10/11 12:07:23;;;;;;;8.85;1.02;;;17.90;78.50;;;;;;4974002;28;20112;-39
2022/10/11 12:09:53;;;;;;;5.90;1.00;;;18.30;76.50;;;;;;4990195;28;20121;-40
2022/10/11 12:12:33;;;;;;;8.75;0.90;;;18.60;75.90;;;;;;4989921;28;20081;-39
2022/10/11 12:15:07;;;;;;;5.95;0.93;;;19.00;73.80;;;;;;4990128;28;20034;-40
2022/10/11 12:17:53;;;;;;;5.07;0.90;;;19.30;71.00;;;;;;4989988;28;20045;-41
2022/10/11 12:20:27;;;;;;;6.03;1.00;;;19.20;70.40;;;;;;4990352;28;20042;-39
2022/10/11 12:23:00;;;;;;;4.75;0.90;;;19.30;68.10;;;;;;4991513;28;20412;-39
2022/10/11 12:25:25;;;;;;;6.35;0.88;;;19.20;69.70;;;;;;4992398;28;20495;-43
2022/10/11 12:27:56;;;;;;;8.45;0.80;;;18.80;71.20;;;;;;4994206;28;20050;-39
2022/10/11 12:30:45;;;;;;;6.45;0.93;;;18.40;69.80;;;;;;4995985;28;20360;-40
2022/10/11 12:33:20;;;;;;;5.22;0.70;;;18.00;69.20;;;;;;4992836;28;20538;-40
2022/10/11 12:36:22;;;;;;;5.85;1.55;;;17.40;73.40;;;;;;4976206;28;20061;-41
2022/10/11 12:39:19;;;;;;;4.85;0.70;;;16.90;74.20;;;;;;4957941;28;20471;-39
2022/10/11 12:41:48;;;;;;;5.85;0.93;;;16.50;76.60;;;;;;4991787;28;20084;-41
2022/10/11 12:44:17;;;;;;;6.82;1.00;;;16.20;79.70;;;;;;4986023;28;20051;-40
2022/10/11 12:46:52;;;;;;;7.40;0.80;;;16.00;79.70;;;;;;4989767;28;20039;-37
2022/10/11 12:49:24;;;;;;;7.00;0.60;;;15.80;79.10;;;;;;4984845;28;20495;-37
2022/10/11 12:51:56;;;;;;;7.10;0.63;;;15.60;80.10;;;;;;4988646;28;20518;-37
2022/10/11 12:54:47;;;;;;;2.90;0.68;;;15.40;81.80;;;;;;4983368;28;20567;-37
2022/10/11 12:57:24;;;;;;;3.05;0.57;;;15.30;82.00;;;;;;4988892;28;20360;-36
2022/10/11 12:59:50;;;;;;;4.35;0.47;;;15.10;83.70;;;;;;4985257;28;20049;-36
2022/10/11 13:02:57;;;;;;;3.85;0.50;;;15.10;85.20;;;;;;4992174;28;20034;-37
2022/10/11 13:05:25;;;;;;;8.40;0.82;;;15.00;84.80;;;;;;4924525;29;20611;-37
2022/10/11 13:07:53;;;;;;;9.82;1.08;;;15.00;85.60;;;;;;4928150;29;20067;-36
2022/10/11 13:10:26;;;;;;;4.70;0.80;;;15.00;86.50;;;;;;4944038;28;20058;-36
2022/10/11 13:12:53;;;;;;;5.88;1.20;;;15.00;86.90;;;;;;4988838;28;20042;-36
2022/10/11 13:15:22;;;;;;;4.70;0.70;;;15.50;86.80;;;;;;4983077;28;20825;-37
2022/10/11 13:17:50;;;;;;;6.50;0.82;;;16.70;82.50;;;;;;4950314;28;20405;-38